Time;durP1;ratioP1;P1;durP2;ratioP2;P2;SDS_P1;SDS_P2;PMS_P1;PMS_P2;Temp;Humidity;BMP_temperature;BMP_pressure;BME280_temperature;BME280_humidity;BME280_pressure;Samples;Min_cycle;Max_cycle;Signal;HPM_P1;HPM_P2
2022/02/26 00:02:24;;;;;;;0.17;0.10;;;;;20.50;94961.00;;;;10436713;28;45144;-43
2022/02/26 00:07:25;;;;;;;0.50;0.13;;;;;20.50;94969.00;;;;10436681;28;45596;-44
2022/02/26 00:12:26;;;;;;;0.20;0.20;;;;;20.50;94967.00;;;;10436232;28;46244;-43
2022/02/26 00:17:28;;;;;;;0.13;0.13;;;;;20.50;94974.00;;;;10436405;28;46112;-44
2022/02/26 00:22:29;;;;;;;0.00;0.00;;;;;20.50;94981.00;;;;10436486;28;45241;-44
2022/02/26 00:27:30;;;;;;;0.20;0.08;;;;;20.50;94982.00;;;;10436000;28;45451;-43
2022/02/26 00:32:31;;;;;;;0.38;0.10;;;;;20.50;94993.00;;;;10435656;28;46336;-42
2022/02/26 00:37:32;;;;;;;0.15;0.10;;;;;20.50;94992.00;;;;10435577;28;46855;-43
2022/02/26 00:42:33;;;;;;;0.20;0.20;;;;;20.50;94995.00;;;;10434528;28;45351;-44
2022/02/26 00:47:35;;;;;;;0.10;0.10;;;;;20.50;94982.00;;;;10434494;28;45477;-42
2022/02/26 00:52:37;;;;;;;0.10;0.10;;;;;20.50;94989.00;;;;10435209;28;46320;-44
2022/02/26 00:57:38;;;;;;;0.10;0.10;;;;;20.50;94997.00;;;;10433416;28;45385;-43
2022/02/26 01:02:39;;;;;;;0.03;0.00;;;;;20.50;94994.00;;;;10434489;28;46060;-44
2022/02/26 01:07:40;;;;;;;0.28;0.20;;;;;20.50;94996.00;;;;10434770;28;45191;-42
2022/02/26 01:12:41;;;;;;;0.05;0.05;;;;;20.50;94996.00;;;;10432891;28;47582;-47
2022/02/26 01:17:43;;;;;;;0.10;0.05;;;;;20.50;94995.00;;;;10434827;28;45254;-44
2022/02/26 01:22:44;;;;;;;0.10;0.10;;;;;20.50;94991.00;;;;10434850;28;45285;-44
2022/02/26 01:27:45;;;;;;;0.20;0.10;;;;;20.50;94987.00;;;;10434979;28;45167;-44
2022/02/26 01:32:46;;;;;;;0.10;0.10;;;;;20.50;94983.00;;;;10434583;28;45145;-43
2022/02/26 01:37:47;;;;;;;0.10;0.10;;;;;20.50;94989.00;;;;10434157;28;47116;-44
2022/02/26 01:42:48;;;;;;;0.10;0.10;;;;;20.50;94984.00;;;;10433932;28;45252;-44
2022/02/26 01:47:49;;;;;;;0.05;0.05;;;;;20.50;94984.00;;;;10433859;28;45105;-44
2022/02/26 01:52:51;;;;;;;0.00;0.00;;;;;20.50;94980.00;;;;10436446;28;46192;-43
2022/02/26 01:57:52;;;;;;;0.43;0.20;;;;;20.50;94987.00;;;;10439096;28;45142;-44
2022/02/26 02:02:57;;;;;;;0.10;0.10;;;;;20.50;94987.00;;;;10436018;28;45884;-44
2022/02/26 02:07:58;;;;;;;0.20;0.17;;;;;20.50;94968.00;;;;10439127;28;46158;-43
2022/02/26 02:13:00;;;;;;;0.20;0.10;;;;;20.50;94977.00;;;;10440411;28;45045;-44
2022/02/26 02:18:02;;;;;;;0.10;0.10;;;;;20.50;94977.00;;;;10439674;28;45215;-43
2022/02/26 02:23:03;;;;;;;0.30;0.10;;;;;20.50;94997.00;;;;10439606;28;46022;-44
2022/02/26 02:28:06;;;;;;;0.10;0.10;;;;;20.50;94990.00;;;;10439658;28;45230;-44
2022/02/26 02:33:07;;;;;;;0.10;0.10;;;;;20.50;94994.00;;;;10438293;28;46200;-43
2022/02/26 02:38:13;;;;;;;0.00;0.00;;;;;20.50;94988.00;;;;10439617;28;45186;-46
2022/02/26 02:43:15;;;;;;;0.63;0.10;;;;;20.50;94992.00;;;;10437726;28;45997;-45
2022/02/26 02:48:16;;;;;;;0.10;0.10;;;;;20.50;94992.00;;;;10438951;28;45072;-44
2022/02/26 02:53:18;;;;;;;0.10;0.10;;;;;20.50;94980.00;;;;10439018;28;45535;-44
2022/02/26 02:58:24;;;;;;;0.10;0.05;;;;;20.50;94996.00;;;;10438656;28;45993;-45
2022/02/26 03:03:26;;;;;;;0.00;0.00;;;;;20.50;94999.00;;;;10436890;28;46653;-43
2022/02/26 03:08:27;;;;;;;0.10;0.10;;;;;20.50;94999.00;;;;10438509;28;45283;-46
2022/02/26 03:13:29;;;;;;;0.52;0.08;;;;;20.50;95006.00;;;;10438158;28;45201;-46
2022/02/26 03:18:30;;;;;;;0.00;0.00;;;;;20.50;94998.00;;;;10436914;28;46002;-46
2022/02/26 03:23:31;;;;;;;0.10;0.10;;;;;20.50;94995.00;;;;10438103;28;45997;-42
2022/02/26 03:28:32;;;;;;;0.17;0.17;;;;;20.50;94997.00;;;;10437507;28;45206;-45
2022/02/26 03:33:33;;;;;;;0.13;0.10;;;;;20.50;95002.00;;;;10437276;28;45234;-42
2022/02/26 03:38:35;;;;;;;0.00;0.00;;;;;20.50;94990.00;;;;10437183;28;45196;-44
2022/02/26 03:43:36;;;;;;;0.10;0.10;;;;;20.50;94999.00;;;;10475564;22;46364;-47
2022/02/26 03:48:37;;;;;;;0.10;0.10;;;;;20.50;95007.00;;;;10435677;28;45197;-43
2022/02/26 03:53:38;;;;;;;0.10;0.10;;;;;20.50;95004.00;;;;10435668;28;47335;-45
2022/02/26 03:58:40;;;;;;;0.00;0.00;;;;;20.50;95021.00;;;;10436308;28;45265;-45
2022/02/26 04:03:41;;;;;;;0.10;0.00;;;;;20.50;95023.00;;;;10435635;28;45144;-46
2022/02/26 04:08:42;;;;;;;0.05;0.03;;;;;20.50;95030.00;;;;10436540;28;46130;-44
2022/02/26 04:13:43;;;;;;;0.17;0.00;;;;;20.50;95033.00;;;;10435355;28;45150;-47
2022/02/26 04:18:44;;;;;;;0.20;0.10;;;;;20.50;95034.00;;;;10435942;28;45148;-44
2022/02/26 04:23:45;;;;;;;0.17;0.10;;;;;20.50;95045.00;;;;10435992;28;45242;-44
2022/02/26 04:28:46;;;;;;;0.00;0.00;;;;;20.50;95045.00;;;;10435421;28;45180;-45
2022/02/26 04:33:47;;;;;;;0.00;0.00;;;;;20.50;95045.00;;;;10435885;28;45240;-44
2022/02/26 04:38:49;;;;;;;0.00;0.00;;;;;20.50;95038.00;;;;10434260;28;45179;-44
2022/02/26 04:43:50;;;;;;;0.03;0.00;;;;;20.50;95046.00;;;;10435214;28;45718;-44
2022/02/26 04:48:51;;;;;;;0.52;0.08;;;;;20.50;95045.00;;;;10434832;28;45160;-45
2022/02/26 04:53:52;;;;;;;0.10;0.00;;;;;20.50;95035.00;;;;10434839;28;45964;-44
2022/02/26 04:58:53;;;;;;;0.00;0.00;;;;;20.50;95058.00;;;;10435110;28;45273;-46
2022/02/26 05:03:54;;;;;;;0.20;0.03;;;;;20.50;95075.00;;;;10434926;28;45129;-44
2022/02/26 05:08:55;;;;;;;0.08;0.08;;;;;20.50;95072.00;;;;10434508;28;47051;-46
2022/02/26 05:13:56;;;;;;;0.00;0.00;;;;;20.50;95060.00;;;;10434614;28;45170;-45
2022/02/26 05:18:57;;;;;;;0.28;0.10;;;;;20.50;95073.00;;;;10434243;28;45235;-46
2022/02/26 05:23:58;;;;;;;0.00;0.00;;;;;20.50;95084.00;;;;10433413;28;46262;-43
2022/02/26 05:29:00;;;;;;;0.20;0.03;;;;;20.50;95088.00;;;;10441303;28;45294;-47
2022/02/26 05:34:02;;;;;;;0.00;0.00;;;;;20.50;95083.00;;;;10441427;28;45146;-44
2022/02/26 05:39:03;;;;;;;0.10;0.10;;;;;20.50;95097.00;;;;10441079;28;45170;-46
2022/02/26 05:44:05;;;;;;;0.03;0.00;;;;;20.50;95100.00;;;;10439913;28;45247;-45
2022/02/26 05:49:06;;;;;;;0.10;0.00;;;;;20.50;95108.00;;;;10440859;28;45512;-46
2022/02/26 05:54:07;;;;;;;0.10;0.00;;;;;20.50;95110.00;;;;10440925;28;45160;-44
2022/02/26 05:59:08;;;;;;;0.08;0.00;;;;;20.50;95118.00;;;;10440259;28;45206;-44
2022/02/26 06:04:09;;;;;;;0.20;0.10;;;;;20.50;95124.00;;;;10438855;28;45194;-44
2022/02/26 06:09:11;;;;;;;0.05;0.05;;;;;20.50;95120.00;;;;10439863;28;46334;-45
2022/02/26 06:14:12;;;;;;;0.20;0.00;;;;;20.50;95123.00;;;;10439014;28;45189;-44
2022/02/26 06:19:13;;;;;;;0.08;0.08;;;;;20.50;95132.00;;;;10439767;28;46058;-47
2022/02/26 06:24:15;;;;;;;0.00;0.00;;;;;20.50;95135.00;;;;10439569;28;45105;-46
2022/02/26 06:29:16;;;;;;;0.10;0.00;;;;;20.50;95134.00;;;;10439446;28;46103;-44
2022/02/26 06:34:17;;;;;;;0.10;0.10;;;;;20.50;95137.00;;;;10438369;28;45821;-44
2022/02/26 06:39:18;;;;;;;0.20;0.10;;;;;20.50;95135.00;;;;10438307;28;45333;-43
2022/02/26 06:44:19;;;;;;;0.00;0.00;;;;;20.50;95130.00;;;;10438043;28;46232;-44
2022/02/26 06:49:20;;;;;;;0.20;0.10;;;;;20.50;95134.00;;;;10439027;28;45453;-45
2022/02/26 06:54:22;;;;;;;0.08;0.00;;;;;20.50;95141.00;;;;10438722;28;45330;-44
2022/02/26 06:59:23;;;;;;;0.17;0.10;;;;;20.50;95143.00;;;;10438380;28;45171;-46
2022/02/26 07:04:25;;;;;;;0.20;0.13;;;;;20.50;95138.00;;;;10438273;28;45320;-45
2022/02/26 07:09:27;;;;;;;0.10;0.10;;;;;20.50;95142.00;;;;10438131;28;46096;-45
2022/02/26 07:14:28;;;;;;;0.10;0.10;;;;;20.50;95154.00;;;;10438142;28;46309;-46
2022/02/26 07:19:29;;;;;;;0.35;0.10;;;;;20.50;95156.00;;;;10437868;28;45189;-47
2022/02/26 07:24:30;;;;;;;0.52;0.00;;;;;20.50;95153.00;;;;10438096;28;46263;-45
2022/02/26 07:29:31;;;;;;;0.00;0.00;;;;;20.50;95157.00;;;;10438034;28;46383;-43
2022/02/26 07:34:32;;;;;;;0.08;0.00;;;;;20.50;95154.00;;;;10437517;28;46168;-46
2022/02/26 07:39:33;;;;;;;0.20;0.10;;;;;20.50;95147.00;;;;10433629;28;46103;-46
2022/02/26 07:44:34;;;;;;;0.22;0.10;;;;;20.50;95157.00;;;;10394302;28;46039;-45
2022/02/26 07:49:35;;;;;;;0.13;0.10;;;;;20.50;95153.00;;;;10395565;28;45579;-46
2022/02/26 07:54:36;;;;;;;0.57;0.30;;;;;20.50;95157.00;;;;10395104;28;46058;-47
2022/02/26 07:59:38;;;;;;;0.60;0.40;;;;;20.50;95146.00;;;;10394271;28;45858;-45
2022/02/26 08:04:39;;;;;;;1.20;0.60;;;;;20.50;95142.00;;;;10394467;28;45171;-45
2022/02/26 08:09:40;;;;;;;1.50;0.82;;;;;20.50;95162.00;;;;10394392;28;45226;-47
2022/02/26 08:14:41;;;;;;;1.80;0.90;;;;;20.50;95146.00;;;;10394519;28;45151;-46
2022/02/26 08:19:42;;;;;;;2.15;0.80;;;;;20.50;95141.00;;;;10393992;28;45295;-46
2022/02/26 08:24:45;;;;;;;1.48;0.88;;;;;20.50;95152.00;;;;10393812;28;45171;-46
2022/02/26 08:29:46;;;;;;;1.80;0.80;;;;;20.50;95115.00;;;;10393613;28;45282;-46
2022/02/26 08:34:47;;;;;;;1.33;0.68;;;;;20.40;95164.00;;;;10419369;28;45252;-47
2022/02/26 08:39:48;;;;;;;1.20;0.57;;;;;20.50;95158.00;;;;10416386;28;46043;-47
2022/02/26 08:44:49;;;;;;;1.27;0.68;;;;;20.40;95175.00;;;;10434525;28;45174;-46
2022/02/26 08:49:50;;;;;;;1.15;0.57;;;;;20.40;95172.00;;;;10435007;28;45172;-46
2022/02/26 08:54:52;;;;;;;0.63;0.40;;;;;20.40;95176.00;;;;10435369;28;45278;-46
2022/02/26 08:59:53;;;;;;;1.17;0.50;;;;;20.40;95160.00;;;;10435524;28;46245;-48
2022/02/26 09:04:54;;;;;;;0.70;0.40;;;;;20.40;95172.00;;;;10442432;28;45391;-47
2022/02/26 09:09:55;;;;;;;0.70;0.40;;;;;20.40;95166.00;;;;10441838;28;45163;-47
2022/02/26 09:14:56;;;;;;;0.95;0.40;;;;;20.40;95176.00;;;;10441857;28;45121;-47
2022/02/26 09:19:57;;;;;;;0.93;0.43;;;;;20.40;95176.00;;;;10441237;28;45925;-47
2022/02/26 09:24:59;;;;;;;1.10;0.50;;;;;20.40;95169.00;;;;10441688;28;46404;-47
2022/02/26 09:30:00;;;;;;;0.50;0.38;;;;;20.40;95163.00;;;;10440974;28;46226;-47
2022/02/26 09:35:01;;;;;;;0.73;0.30;;;;;20.40;95159.00;;;;10441051;28;47376;-47
2022/02/26 09:40:04;;;;;;;0.55;0.25;;;;;20.40;95170.00;;;;10440900;28;46120;-46
2022/02/26 09:45:06;;;;;;;0.30;0.30;;;;;20.40;95153.00;;;;10407662;28;45228;-46
2022/02/26 09:50:07;;;;;;;0.82;0.40;;;;;20.40;95157.00;;;;10407932;28;48120;-46
2022/02/26 09:55:09;;;;;;;0.95;0.47;;;;;20.40;95150.00;;;;10439107;28;45227;-46
2022/02/26 10:00:11;;;;;;;0.88;0.50;;;;;20.40;95156.00;;;;10440215;28;45287;-47
2022/02/26 10:05:12;;;;;;;0.40;0.22;;;;;20.40;95159.00;;;;10406500;28;45311;-46
2022/02/26 10:10:23;;;;;;;0.47;0.20;;;;;20.40;95161.00;;;;10420411;28;46166;-46
2022/02/26 10:15:35;;;;;;;0.60;0.30;;;;;20.40;95139.00;;;;10430280;28;45151;-45
2022/02/26 10:20:44;;;;;;;0.43;0.20;;;;;20.40;95155.00;;;;10415197;28;45971;-45
2022/02/26 10:25:45;;;;;;;0.32;0.30;;;;;20.40;95143.00;;;;10419574;28;46235;-45
2022/02/26 10:30:47;;;;;;;0.82;0.32;;;;;20.40;95149.00;;;;10418173;28;45625;-46
2022/02/26 10:35:54;;;;;;;1.67;0.50;;;;;20.40;95150.00;;;;10397838;28;46956;-46
2022/02/26 10:41:07;;;;;;;0.40;0.30;;;;;20.40;95137.00;;;;10397070;28;45477;-47
2022/02/26 10:46:21;;;;;;;0.85;0.20;;;;;20.40;95136.00;;;;10397427;28;45173;-47
2022/02/26 10:51:28;;;;;;;0.40;0.15;;;;;20.40;95120.00;;;;10396309;28;45874;-46
2022/02/26 10:56:36;;;;;;;0.38;0.20;;;;;20.40;95113.00;;;;10397286;28;45354;-46
2022/02/26 11:01:38;;;;;;;0.65;0.20;;;;;20.30;95123.00;;;;10406409;28;45243;-47
2022/02/26 11:06:39;;;;;;;0.40;0.20;;;;;20.30;95126.00;;;;10406665;28;45214;-46
2022/02/26 11:11:40;;;;;;;0.10;0.10;;;;;20.30;95120.00;;;;10401726;28;46148;-46
2022/02/26 11:16:42;;;;;;;0.57;0.20;;;;;20.30;95105.00;;;;10412987;28;46049;-46
2022/02/26 11:21:44;;;;;;;0.20;0.20;;;;;20.30;95113.00;;;;10428323;28;45807;-46
2022/02/26 11:26:46;;;;;;;0.10;0.10;;;;;20.30;95104.00;;;;10410317;28;45180;-45
2022/02/26 11:31:57;;;;;;;0.25;0.20;;;;;20.40;95100.00;;;;10392794;28;45218;-47
2022/02/26 11:37:03;;;;;;;0.47;0.30;;;;;20.40;95103.00;;;;10396014;28;47097;-49
2022/02/26 11:42:16;;;;;;;0.55;0.20;;;;;20.40;95092.00;;;;10396861;28;45368;-46
2022/02/26 11:47:19;;;;;;;0.17;0.10;;;;;20.40;95087.00;;;;10395366;28;46293;-47
2022/02/26 11:52:36;;;;;;;0.90;0.28;;;;;20.50;95090.00;;;;10402772;28;46112;-46
2022/02/26 11:57:37;;;;;;;0.63;0.10;;;;;20.50;95085.00;;;;10395151;28;47027;-45
2022/02/26 12:02:38;;;;;;;1.40;0.30;;;;;20.50;95074.00;;;;10447136;28;45955;-46
2022/02/26 12:07:41;;;;;;;0.77;0.25;;;;;20.50;95029.00;;;;10408139;28;45259;-47
2022/02/26 12:12:48;;;;;;;0.32;0.20;;;;;20.50;95070.00;;;;10396257;28;46184;-46
2022/02/26 12:17:55;;;;;;;0.55;0.20;;;;;20.40;95069.00;;;;10416057;28;45221;-47
2022/02/26 12:23:08;;;;;;;0.47;0.20;;;;;20.40;95062.00;;;;10415273;28;45147;-45
2022/02/26 12:28:15;;;;;;;0.20;0.10;;;;;20.40;95066.00;;;;10405983;28;45265;-46
2022/02/26 12:33:18;;;;;;;0.17;0.10;;;;;20.40;95054.00;;;;10393350;28;46275;-46
2022/02/26 12:38:29;;;;;;;0.20;0.10;;;;;20.40;95057.00;;;;10393337;28;45242;-47
2022/02/26 12:43:31;;;;;;;0.65;0.10;;;;;20.40;95052.00;;;;10394139;28;45179;-47
2022/02/26 12:48:32;;;;;;;0.47;0.10;;;;;20.40;95060.00;;;;10394504;28;45096;-47
2022/02/26 12:53:36;;;;;;;0.35;0.10;;;;;20.40;95052.00;;;;10393178;28;46096;-47
2022/02/26 12:58:38;;;;;;;0.20;0.10;;;;;20.40;95051.00;;;;10391525;28;46222;-47
2022/02/26 13:03:40;;;;;;;0.30;0.10;;;;;20.50;95039.00;;;;10387319;28;46204;-47
2022/02/26 13:08:41;;;;;;;0.30;0.10;;;;;20.40;95032.00;;;;10394413;28;46098;-47
2022/02/26 13:13:42;;;;;;;0.50;0.20;;;;;20.50;95045.00;;;;10402478;28;45204;-46
2022/02/26 13:18:48;;;;;;;0.03;0.03;;;;;20.40;95028.00;;;;10393197;28;45405;-47
2022/02/26 13:23:51;;;;;;;0.50;0.20;;;;;20.40;95015.00;;;;10393154;28;45348;-47
2022/02/26 13:28:54;;;;;;;0.25;0.10;;;;;20.50;95008.00;;;;10418893;28;45244;-46
2022/02/26 13:34:19;;;;;;;1.15;0.30;;;;;20.50;95003.00;;;;10400605;28;45967;-47
2022/02/26 13:39:20;;;;;;;1.25;0.20;;;;;20.50;94999.00;;;;10392363;28;46997;-46
2022/02/26 13:44:31;;;;;;;0.65;0.10;;;;;20.50;95007.00;;;;10392664;28;46131;-46
2022/02/26 13:49:34;;;;;;;0.30;0.20;;;;;20.50;94989.00;;;;10399034;28;45142;-47
2022/02/26 13:54:37;;;;;;;0.20;0.20;;;;;20.50;94989.00;;;;10399613;28;45183;-46
2022/02/26 13:59:39;;;;;;;1.45;0.20;;;;;20.50;94998.00;;;;10398977;28;46175;-47
2022/02/26 14:04:42;;;;;;;0.52;0.00;;;;;20.50;94989.00;;;;10394970;28;45843;-46
2022/02/26 14:09:44;;;;;;;0.52;0.20;;;;;20.50;94972.00;;;;10396273;28;45482;-45
2022/02/26 14:14:45;;;;;;;0.38;0.20;;;;;20.50;94982.00;;;;10398959;28;45144;-46
2022/02/26 14:19:46;;;;;;;1.67;0.28;;;;;20.50;94981.00;;;;10398695;28;46442;-47
2022/02/26 14:24:48;;;;;;;0.38;0.10;;;;;20.50;94972.00;;;;10398324;28;45198;-46
2022/02/26 14:29:49;;;;;;;0.10;0.10;;;;;20.50;94961.00;;;;10398113;28;46108;-47
2022/02/26 14:34:50;;;;;;;0.57;0.13;;;;;20.50;94970.00;;;;10396793;28;46045;-46
2022/02/26 14:39:51;;;;;;;0.20;0.10;;;;;20.50;94960.00;;;;10398650;28;46191;-46
2022/02/26 14:44:53;;;;;;;0.20;0.20;;;;;20.50;94947.00;;;;10407678;28;45243;-46
2022/02/26 14:49:54;;;;;;;0.40;0.10;;;;;20.50;94952.00;;;;10410635;28;45198;-46
2022/02/26 14:54:55;;;;;;;0.30;0.20;;;;;20.50;94937.00;;;;10422932;28;46210;-47
2022/02/26 14:59:56;;;;;;;0.10;0.00;;;;;20.50;94946.00;;;;10415681;28;46005;-46
2022/02/26 15:04:59;;;;;;;0.55;0.20;;;;;20.50;94939.00;;;;10389960;28;47448;-47
2022/02/26 15:10:00;;;;;;;0.30;0.20;;;;;20.50;94945.00;;;;10416797;28;46173;-48
2022/02/26 15:15:01;;;;;;;0.20;0.10;;;;;20.50;94940.00;;;;10412133;28;45360;-46
2022/02/26 15:20:03;;;;;;;0.47;0.20;;;;;20.50;94939.00;;;;10396403;28;48213;-47
2022/02/26 15:25:05;;;;;;;0.10;0.10;;;;;20.50;94935.00;;;;10414351;28;46408;-46
2022/02/26 15:30:06;;;;;;;0.10;0.10;;;;;20.50;94933.00;;;;10413461;28;45484;-47
2022/02/26 15:35:08;;;;;;;0.30;0.15;;;;;20.50;94929.00;;;;10408234;28;45254;-46
2022/02/26 15:40:11;;;;;;;0.32;0.08;;;;;20.50;94915.00;;;;10409793;28;45771;-46
2022/02/26 15:45:12;;;;;;;0.40;0.20;;;;;20.50;94926.00;;;;10410280;28;45239;-47
2022/02/26 15:50:13;;;;;;;1.83;0.85;;;;;20.50;94916.00;;;;10453878;22;46023;-50
2022/02/26 15:55:15;;;;;;;0.17;0.17;;;;;20.50;94908.00;;;;10432919;28;46012;-46
2022/02/26 16:00:16;;;;;;;0.17;0.10;;;;;20.50;94905.00;;;;10419486;28;45911;-48
2022/02/26 16:05:17;;;;;;;0.20;0.10;;;;;20.50;94892.00;;;;10416550;28;46203;-47
2022/02/26 16:10:18;;;;;;;0.32;0.13;;;;;20.50;94903.00;;;;10412515;28;45920;-46
2022/02/26 16:15:19;;;;;;;1.05;0.10;;;;;20.50;94902.00;;;;10413787;28;45516;-48
2022/02/26 16:20:21;;;;;;;0.28;0.17;;;;;20.50;94894.00;;;;10411110;28;46981;-47
2022/02/26 16:25:22;;;;;;;0.30;0.20;;;;;20.60;94898.00;;;;10413409;28;45432;-47
2022/02/26 16:30:25;;;;;;;0.63;0.28;;;;;20.60;94880.00;;;;10408142;28;47753;-47
2022/02/26 16:35:26;;;;;;;0.08;0.08;;;;;20.60;94891.00;;;;10407227;28;47214;-48
2022/02/26 16:40:29;;;;;;;0.20;0.10;;;;;20.60;94875.00;;;;10411886;28;45322;-48
2022/02/26 16:45:30;;;;;;;0.25;0.10;;;;;20.60;94893.00;;;;10414479;28;45437;-47
2022/02/26 16:50:31;;;;;;;0.45;0.20;;;;;20.60;94893.00;;;;10434447;28;46180;-47
2022/02/26 16:55:32;;;;;;;0.20;0.10;;;;;20.60;94896.00;;;;10404559;28;46070;-46
2022/02/26 17:00:33;;;;;;;0.47;0.20;;;;;20.60;94887.00;;;;10393654;28;46130;-46
2022/02/26 17:05:34;;;;;;;0.50;0.20;;;;;20.60;94896.00;;;;10395981;28;45893;-47
2022/02/26 17:10:35;;;;;;;0.15;0.13;;;;;20.60;94885.00;;;;10394440;28;45149;-47
2022/02/26 17:15:42;;;;;;;0.20;0.20;;;;;20.60;94902.00;;;;10392667;28;46083;-49
2022/02/26 17:20:45;;;;;;;0.30;0.13;;;;;20.60;94897.00;;;;10392327;28;46031;-48
2022/02/26 17:25:47;;;;;;;0.25;0.10;;;;;20.60;94899.00;;;;10402378;28;45133;-47
2022/02/26 17:30:48;;;;;;;0.30;0.15;;;;;20.60;94893.00;;;;10400633;28;45365;-47
2022/02/26 17:35:49;;;;;;;0.57;0.30;;;;;20.60;94900.00;;;;10400190;28;45323;-47
2022/02/26 17:40:50;;;;;;;0.20;0.10;;;;;20.60;94912.00;;;;10400036;28;45170;-46
2022/02/26 17:45:51;;;;;;;0.17;0.10;;;;;20.60;94911.00;;;;10398258;28;45175;-46
2022/02/26 17:50:54;;;;;;;0.17;0.17;;;;;20.60;94901.00;;;;10399366;28;45334;-48
2022/02/26 17:55:55;;;;;;;0.17;0.15;;;;;20.60;94903.00;;;;10400400;28;45096;-46
2022/02/26 18:00:56;;;;;;;0.52;0.17;;;;;20.60;94898.00;;;;10414395;28;45186;-46
2022/02/26 18:05:58;;;;;;;0.25;0.25;;;;;20.60;94905.00;;;;10394292;28;45246;-47
2022/02/26 18:11:00;;;;;;;0.40;0.20;;;;;20.60;94906.00;;;;10398337;28;45523;-44
2022/02/26 18:16:02;;;;;;;0.65;0.20;;;;;20.60;94902.00;;;;10398463;28;46176;-45
2022/02/26 18:21:04;;;;;;;0.10;0.10;;;;;20.60;94897.00;;;;10410078;28;45556;-47
2022/02/26 18:26:05;;;;;;;0.30;0.20;;;;;20.60;94894.00;;;;10418172;28;45275;-47
2022/02/26 18:31:07;;;;;;;0.73;0.20;;;;;20.60;94896.00;;;;10411794;28;45789;-45
2022/02/26 18:36:11;;;;;;;0.20;0.10;;;;;20.60;94900.00;;;;10415708;28;45945;-47
2022/02/26 18:41:12;;;;;;;0.10;0.10;;;;;20.60;94900.00;;;;10402782;28;45111;-44
2022/02/26 18:46:13;;;;;;;0.15;0.10;;;;;20.60;94890.00;;;;10396705;28;46384;-46
2022/02/26 18:51:14;;;;;;;0.35;0.20;;;;;20.60;94884.00;;;;10397812;28;45352;-46
2022/02/26 18:56:15;;;;;;;0.20;0.10;;;;;20.60;94881.00;;;;10396818;28;45501;-45
2022/02/26 19:01:16;;;;;;;0.35;0.20;;;;;20.60;94877.00;;;;10396739;28;46183;-43
2022/02/26 19:06:19;;;;;;;0.20;0.13;;;;;20.60;94896.00;;;;10397030;28;46092;-48
2022/02/26 19:11:20;;;;;;;0.40;0.20;;;;;20.60;94897.00;;;;10415414;28;45579;-47
2022/02/26 19:16:21;;;;;;;0.28;0.20;;;;;20.60;94886.00;;;;10418583;28;45599;-46
2022/02/26 19:21:22;;;;;;;0.65;0.30;;;;;20.60;94896.00;;;;10438050;28;46103;-44
2022/02/26 19:26:23;;;;;;;0.28;0.10;;;;;20.60;94896.00;;;;10436850;28;45321;-47
2022/02/26 19:31:24;;;;;;;0.40;0.20;;;;;20.60;94892.00;;;;10437670;28;45132;-44
2022/02/26 19:36:26;;;;;;;0.80;0.20;;;;;20.60;94906.00;;;;10437593;28;45451;-43
2022/02/26 19:41:27;;;;;;;0.57;0.20;;;;;20.60;94910.00;;;;10437346;28;46325;-43
2022/02/26 19:46:28;;;;;;;0.35;0.30;;;;;20.60;94907.00;;;;10436738;28;45348;-47
2022/02/26 19:51:30;;;;;;;0.43;0.20;;;;;20.60;94884.00;;;;10437387;28;45232;-43
2022/02/26 19:56:31;;;;;;;0.73;0.30;;;;;20.60;94899.00;;;;10435559;28;45139;-45
2022/02/26 20:01:32;;;;;;;0.40;0.20;;;;;20.60;94892.00;;;;10436700;28;45988;-46
2022/02/26 20:06:34;;;;;;;0.52;0.20;;;;;20.60;94890.00;;;;10436080;28;45951;-45
2022/02/26 20:11:35;;;;;;;0.10;0.10;;;;;20.60;94876.00;;;;10436794;28;46507;-47
2022/02/26 20:16:36;;;;;;;0.40;0.10;;;;;20.60;94891.00;;;;10436281;28;46518;-46
2022/02/26 20:21:37;;;;;;;0.25;0.20;;;;;20.60;94883.00;;;;10435532;28;45207;-47
2022/02/26 20:26:38;;;;;;;0.15;0.10;;;;;20.60;94886.00;;;;10434845;28;45448;-47
2022/02/26 20:31:40;;;;;;;0.20;0.10;;;;;20.60;94880.00;;;;10436083;28;45963;-45
2022/02/26 20:36:47;;;;;;;0.10;0.10;;;;;20.60;94880.00;;;;10435368;28;46997;-45
2022/02/26 20:41:48;;;;;;;;;;;;;20.60;94893.00;;;;10436376;28;45480;-47
2022/02/26 20:46:49;;;;;;;0.20;0.20;;;;;20.60;94888.00;;;;10433614;28;46011;-44
2022/02/26 20:51:50;;;;;;;0.50;0.20;;;;;20.60;94882.00;;;;10435149;28;45171;-45
2022/02/26 20:56:52;;;;;;;0.32;0.10;;;;;20.60;94871.00;;;;10437852;28;45297;-48
2022/02/26 21:01:53;;;;;;;0.73;0.20;;;;;20.60;94870.00;;;;10442356;28;45910;-47
2022/02/26 21:06:54;;;;;;;0.13;0.10;;;;;20.60;94873.00;;;;10442110;28;45486;-47
2022/02/26 21:11:55;;;;;;;0.30;0.10;;;;;20.60;94864.00;;;;10442804;28;45484;-44
2022/02/26 21:16:56;;;;;;;0.10;0.10;;;;;20.60;94864.00;;;;10442217;28;45182;-44
2022/02/26 21:21:57;;;;;;;0.28;0.10;;;;;20.60;94877.00;;;;10441914;28;45151;-46
2022/02/26 21:26:58;;;;;;;0.10;0.10;;;;;20.60;94847.00;;;;10441513;28;45272;-47
2022/02/26 21:31:59;;;;;;;0.30;0.10;;;;;20.60;94848.00;;;;10441963;28;45249;-47
2022/02/26 21:37:01;;;;;;;0.17;0.10;;;;;20.60;94844.00;;;;10440841;28;45435;-47
2022/02/26 21:42:02;;;;;;;0.20;0.08;;;;;20.60;94838.00;;;;10439537;28;45219;-48
2022/02/26 21:47:04;;;;;;;0.13;0.10;;;;;20.60;94830.00;;;;10474546;22;46080;-48
2022/02/26 21:52:05;;;;;;;0.00;0.00;;;;;20.60;94826.00;;;;10441091;28;47006;-48
2022/02/26 21:57:06;;;;;;;0.10;0.10;;;;;20.60;94818.00;;;;10440178;28;46031;-48
2022/02/26 22:02:08;;;;;;;0.05;0.05;;;;;20.60;94829.00;;;;10440856;28;45154;-47
2022/02/26 22:07:10;;;;;;;0.03;0.03;;;;;20.60;94816.00;;;;10440338;28;45155;-48
2022/02/26 22:12:11;;;;;;;0.35;0.10;;;;;20.60;94807.00;;;;10440603;28;45901;-47
2022/02/26 22:17:13;;;;;;;0.00;0.00;;;;;20.60;94808.00;;;;10439809;28;45439;-47
2022/02/26 22:22:14;;;;;;;0.10;0.10;;;;;20.60;94808.00;;;;10440655;28;45217;-48
2022/02/26 22:27:15;;;;;;;0.30;0.10;;;;;20.60;94811.00;;;;10439571;28;45242;-47
2022/02/26 22:32:16;;;;;;;0.25;0.00;;;;;20.60;94788.00;;;;10439159;28;45233;-49
2022/02/26 22:37:17;;;;;;;0.35;0.00;;;;;20.60;94773.00;;;;10439186;28;46079;-46
2022/02/26 22:42:18;;;;;;;0.20;0.20;;;;;20.60;94766.00;;;;10439576;28;45972;-48
2022/02/26 22:47:20;;;;;;;0.43;0.20;;;;;20.60;94768.00;;;;10438672;28;45235;-48
2022/02/26 22:52:21;;;;;;;0.08;0.00;;;;;20.60;94768.00;;;;10436384;28;45178;-47
2022/02/26 22:57:23;;;;;;;0.10;0.10;;;;;20.60;94755.00;;;;10434840;28;46302;-46
2022/02/26 23:02:36;;;;;;;0.17;0.00;;;;;20.60;94742.00;;;;10439202;28;45182;-46
2022/02/26 23:07:37;;;;;;;0.03;0.00;;;;;20.60;94741.00;;;;10438585;28;46078;-46
2022/02/26 23:12:38;;;;;;;0.10;0.10;;;;;20.60;94733.00;;;;10439085;28;45225;-46
2022/02/26 23:17:39;;;;;;;0.00;0.00;;;;;20.60;94718.00;;;;10438148;28;45045;-47
2022/02/26 23:22:40;;;;;;;0.10;0.10;;;;;20.60;94747.00;;;;10438304;28;45842;-46
2022/02/26 23:27:41;;;;;;;0.13;0.10;;;;;20.60;94752.00;;;;10436748;28;46187;-47
2022/02/26 23:32:43;;;;;;;0.10;0.10;;;;;20.60;94742.00;;;;10438273;28;45163;-46
2022/02/26 23:37:44;;;;;;;0.10;0.08;;;;;20.60;94727.00;;;;10437609;28;45219;-47
2022/02/26 23:42:45;;;;;;;0.13;0.10;;;;;20.60;94721.00;;;;10436649;28;46090;-46
2022/02/26 23:47:46;;;;;;;0.00;0.00;;;;;20.60;94730.00;;;;10437087;28;45162;-47
2022/02/26 23:52:47;;;;;;;0.15;0.10;;;;;20.60;94711.00;;;;10437409;28;46111;-46
2022/02/26 23:57:48;;;;;;;0.00;0.00;;;;;20.60;94700.00;;;;10436955;28;45198;-47
